Latest Weather Observations for Flinders Island Airport

IDT60801

Issued at 12:02 pm EDT Sunday 18 February 2018 (issued every 30 minutes, with the page automatically refreshed every 10 minutes)

About weather observations | Map of weather stations | Latest weather observations for TAS | Other Formats
Station Details ID: 099005 Name: FLINDERS ISLAND AIRPORT Lat: -40.09 Lon: 148.00 Height: 9.0 m
Data from the previous 72 hours. | See also: Recent months at Flinders Island Airport
Date/Time
EDT
Temp
°C
App
Temp
°C
Dew
Point
°C
Rel
Hum
%
Delta-T
°C
Wind Press
QNH
hPa
Press
MSL
hPa
Rain since
9am
mm
Dir  Spd
km/h
Gust
km/h
Spd
kts
Gust
kts
18/12:00pm 19.8 18.8 15.7 77 2.4 WSW 15 17 8 9 1013.0 1013.0 0.0
18/11:30am 20.1 18.8 15.7 76 2.6 WSW 17 20 9 11 1012.9 1012.9 0.0
18/11:00am 20.2 18.9 15.8 76 2.6 W 17 20 9 11 1013.0 1013.0 0.0
18/10:30am 19.2 18.1 15.3 78 2.3 W 15 19 8 10 1012.7 1012.7 0.0
18/10:00am 19.1 17.6 15.2 78 2.3 W 17 20 9 11 1012.8 1012.8 0.0
18/09:30am 18.7 17.0 14.8 78 2.3 W 17 22 9 12 1013.0 1013.0 0.0
18/09:00am 18.6 17.4 15.1 80 2.0 WNW 15 19 8 10 1013.0 1013.0 0.0
18/08:30am 18.3 17.1 15.0 81 1.9 WNW 15 19 8 10 1012.8 1012.8 0.0
18/08:00am 18.1 16.6 15.2 83 1.7 W 17 20 9 11 1012.4 1012.4 0.0
18/07:30am 17.9 16.2 14.6 81 1.9 WNW 17 20 9 11 1012.1 1012.1 0.0
18/07:00am 17.7 16.7 14.6 82 1.8 WNW 13 17 7 9 1011.7 1011.7 0.0
18/06:30am 17.9 15.8 14.8 82 1.8 WNW 19 24 10 13 1011.6 1011.6 0.0
18/06:00am 18.2 15.7 14.1 77 2.4 WNW 20 28 11 15 1011.4 1011.4 0.0
18/05:30am 18.0 15.3 14.5 80 2.0 WNW 22 28 12 15 1011.4 1011.4 0.0
18/05:00am 17.9 15.2 14.6 81 1.9 WNW 22 28 12 15 1011.2 1011.2 0.0
18/04:30am 17.9 14.8 14.6 81 1.9 W 24 32 13 17 1011.1 1011.1 0.0
18/04:00am 18.0 15.4 14.9 82 1.8 WNW 22 28 12 15 1011.2 1011.2 0.0
18/03:30am 17.9 15.3 15.0 83 1.7 WNW 22 32 12 17 1011.2 1011.2 0.0
18/03:00am 18.0 15.3 14.7 81 1.9 W 22 30 12 16 1011.3 1011.3 0.0
18/02:30am 18.1 15.1 14.8 81 1.9 WNW 24 30 13 16 1011.6 1011.6 0.0
18/02:00am 17.8 14.3 14.5 81 1.9 WNW 26 33 14 18 1011.8 1011.8 0.0
18/01:30am 17.7 15.3 14.4 81 1.9 WNW 20 28 11 15 1011.8 1011.8 0.0
18/01:00am 17.7 14.0 14.0 79 2.1 WNW 26 33 14 18 1011.9 1011.9 0.0
18/12:30am 17.7 14.7 13.8 78 2.2 WNW 22 30 12 16 1012.1 1012.1 0.0
18/12:00am 17.9 14.7 14.2 79 2.1 W 24 33 13 18 1012.0 1012.0 0.0
 
Date/Time
EDT
Temp
°C
App
Temp
°C
Dew
Point
°C
Rel
Hum
%
Delta-T
°C
Wind Press
QNH
hPa
Press
MSL
hPa
Rain since
9am
mm
Dir  Spd
km/h
Gust
km/h
Spd
kts
Gust
kts
17/11:30pm 17.8 14.5 14.1 79 2.1 W 24 32 13 17 1011.8 1011.8 0.0
17/11:00pm 17.8 14.3 14.5 81 1.9 W 26 33 14 18 1011.9 1011.9 0.0
17/10:30pm 18.0 14.8 14.3 79 2.1 W 24 30 13 16 1011.9 1011.9 0.0
17/10:00pm 17.7 13.8 14.4 81 1.9 WNW 28 35 15 19 1012.0 1012.0 0.0
17/09:30pm 17.6 13.8 13.7 78 2.2 WNW 26 33 14 18 1011.9 1011.9 0.0
17/09:00pm 17.6 13.8 13.5 77 2.3 WNW 26 33 14 18 1011.6 1011.6 0.0
17/08:30pm 17.7 13.5 13.6 77 2.3 W 28 37 15 20 1011.3 1011.3 0.0
17/08:00pm 17.9 13.6 13.2 74 2.6 WNW 28 35 15 19 1010.8 1010.8 0.0
17/07:30pm 18.1 13.4 13.2 73 2.8 WNW 30 37 16 20 1010.8 1010.8 0.0
17/07:00pm 18.6 13.5 13.2 71 3.1 WNW 32 39 17 21 1010.5 1010.5 0.0
17/06:30pm 19.2 14.3 13.6 70 3.2 WNW 32 37 17 20 1010.6 1010.6 0.0
17/06:00pm 19.3 14.3 13.5 69 3.3 WNW 32 41 17 22 1010.5 1010.5 0.0
17/05:30pm 19.0 13.9 13.0 68 3.4 WNW 32 39 17 21 1010.3 1010.3 0.0
17/05:00pm 18.9 13.7 12.9 68 3.4 WNW 32 39 17 21 1010.2 1010.2 0.0
17/04:30pm 19.0 13.6 12.3 65 3.7 WNW 32 41 17 22 1010.5 1010.5 0.0
17/04:00pm 20.0 15.1 12.5 62 4.2 WNW 30 39 16 21 1010.3 1010.3 0.0
17/03:30pm 20.3 14.7 11.5 57 4.9 WNW 32 41 17 22 1010.4 1010.4 0.0
17/03:00pm 20.3 14.4 11.0 55 5.1 W 33 44 18 24 1010.6 1010.6 0.0
17/02:30pm 20.0 14.2 11.5 58 4.7 W 33 43 18 23 1010.7 1010.7 0.0
17/02:00pm 19.8 14.5 12.6 63 4.1 W 32 39 17 21 1011.0 1011.0 0.0
17/01:30pm 19.8 14.3 11.8 60 4.4 WNW 32 41 17 22 1011.2 1011.2 0.0
17/01:00pm 20.2 14.6 11.4 57 4.9 WNW 32 41 17 22 1011.3 1011.3 0.0
17/12:30pm 19.2 13.5 11.0 59 4.5 WNW 32 39 17 21 1011.4 1011.4 0.0
17/12:00pm 19.5 14.0 10.5 56 4.9 WNW 30 41 16 22 1011.6 1011.6 0.0
17/11:30am 19.3 14.1 11.6 61 4.2 WNW 30 39 16 21 1011.6 1011.6 0.0
17/11:00am 19.3 13.8 10.6 57 4.7 WNW 30 39 16 21 1011.8 1011.8 0.0
17/10:30am 19.2 14.3 11.3 60 4.3 WNW 28 37 15 20 1012.0 1012.0 0.0
17/10:00am 18.4 12.5 10.3 59 4.3 WNW 32 39 17 21 1012.3 1012.3 0.0
17/09:30am 17.9 12.3 10.0 60 4.2 WNW 30 39 16 21 1012.1 1012.1 0.0
17/09:00am 17.9 12.4 10.5 62 4.0 WNW 30 35 16 19 1012.2 1012.2 0.4
17/08:30am 17.7 12.3 10.8 64 3.7 WNW 30 35 16 19 1012.0 1012.0 0.4
17/08:00am 17.0 11.7 9.9 63 3.7 WNW 28 37 15 20 1011.9 1011.9 0.4
17/07:30am 16.3 11.1 10.4 68 3.1 WNW 28 37 15 20 1011.8 1011.8 0.4
17/07:00am 16.2 11.6 9.8 66 3.3 WNW 24 35 13 19 1011.7 1011.7 0.4
17/06:30am 16.0 10.8 9.0 63 3.6 WNW 26 33 14 18 1011.5 1011.5 0.4
17/06:00am 16.0 10.9 9.2 64 3.5 WNW 26 33 14 18 1011.2 1011.2 0.4
17/05:30am 16.1 11.0 9.3 64 3.5 WNW 26 33 14 18 1011.0 1011.0 0.4
17/05:00am 16.0 9.7 9.0 63 3.6 W 32 39 17 21 1010.9 1010.9 0.4
17/04:30am 15.9 10.5 9.6 66 3.3 W 28 37 15 20 1010.7 1010.7 0.4
17/04:00am 15.8 10.4 9.5 66 3.3 WNW 28 35 15 19 1010.7 1010.7 0.4
17/03:30am 16.0 10.2 9.4 65 3.4 W 30 37 16 20 1011.0 1011.0 0.4
17/03:00am 16.1 10.6 9.1 63 3.6 WNW 28 35 15 19 1011.1 1011.1 0.4
17/02:30am 16.3 10.4 9.0 62 3.8 W 30 37 16 20 1011.3 1011.3 0.4
17/02:00am 16.6 10.2 9.3 62 3.8 W 33 39 18 21 1011.4 1011.4 0.4
17/01:30am 16.6 10.4 10.2 66 3.4 W 33 46 18 25 1011.7 1011.7 0.4
17/01:00am 16.6 9.7 10.2 66 3.4 W 37 46 20 25 1012.0 1012.0 0.4
17/12:30am 16.6 10.6 10.7 68 3.1 W 33 39 18 21 1011.9 1011.9 0.4
17/12:00am 16.5 9.2 8.7 60 4.0 W 37 48 20 26 1011.8 1011.8 0.4
 
Date/Time
EDT
Temp
°C
App
Temp
°C
Dew
Point
°C
Rel
Hum
%
Delta-T
°C
Wind Press
QNH
hPa
Press
MSL
hPa
Rain since
9am
mm
Dir  Spd
km/h
Gust
km/h
Spd
kts
Gust
kts
16/11:30pm 16.5 9.1 8.2 58 4.2 W 37 48 20 26 1012.1 1012.1 0.4
16/11:00pm 16.4 8.9 9.6 64 3.5 W 39 48 21 26 1012.1 1012.1 0.4
16/10:30pm 16.4 8.8 8.9 61 3.9 W 39 46 21 25 1012.1 1012.1 0.4
16/10:00pm 16.7 8.2 8.4 58 4.2 W 43 52 23 28 1011.9 1011.9 0.4
16/09:30pm 16.4 9.0 10.0 66 3.4 W 39 52 21 28 1012.0 1012.0 0.4
16/09:00pm 16.6 8.9 10.0 65 3.5 W 41 50 22 27 1011.7 1011.7 0.4
16/08:30pm 16.5 8.3 9.7 64 3.6 W 43 54 23 29 1011.8 1011.8 0.4
16/08:00pm 16.6 8.4 10.5 67 3.2 W 44 54 24 29 1011.1 1011.1 0.4
16/07:30pm 17.1 8.1 8.8 58 4.3 W 46 54 25 29 1010.7 1010.7 0.4
16/07:00pm 17.4 9.0 9.6 60 4.1 W 44 54 24 29 1010.5 1010.5 0.4
16/06:30pm 17.5 8.5 10.4 63 3.8 W 48 57 26 31 1010.3 1010.3 0.4
16/06:00pm 17.6 7.6 10.7 64 3.7 W 54 61 29 33 1010.2 1010.2 0.4
16/05:30pm 17.5 7.9 10.9 65 3.6 W 52 63 28 34 1010.1 1010.1 0.4
16/05:00pm 17.7 7.4 9.6 59 4.3 W 54 63 29 34 1009.9 1009.9 0.4
16/04:30pm 18.2 8.1 10.3 60 4.2 W 54 63 29 34 1009.7 1009.7 0.4
16/04:00pm 18.7 8.5 11.3 62 4.0 W 56 70 30 38 1009.6 1009.6 0.4
16/03:30pm 18.5 9.0 11.1 62 4.0 W 52 67 28 36 1009.6 1009.6 0.4
16/03:00pm 18.6 8.4 10.2 58 4.5 W 54 65 29 35 1009.6 1009.6 0.4
16/02:49pm 18.6 8.5 10.4 59 4.4 W 54 72 29 39 1009.5 1009.5 0.4
16/02:30pm 18.8 8.9 9.8 56 4.8 W 52 63 28 34 1009.5 1009.5 0.4
16/02:00pm 18.7 9.2 11.0 61 4.2 W 52 61 28 33 1009.5 1009.5 0.4
16/01:30pm 18.3 8.0 9.6 57 4.6 W 54 65 29 35 1009.6 1009.6 0.4
16/01:03pm 17.9 8.3 9.5 58 4.4 W 50 69 27 37 1009.4 1009.4 0.4
16/01:00pm 17.8 8.8 11.6 67 3.4 W 50 61 27 33 1009.5 1009.5 0.4
16/12:38pm 15.4 5.8 12.0 80 1.8 W 54 78 29 42 1009.6 1009.6 0.4
16/12:30pm 17.0 7.5 9.7 62 3.8 W 50 63 27 34 1009.5 1009.5 0.4
16/12:00pm 17.7 8.4 10.6 63 3.8 W 50 61 27 33 1009.6 1009.6 0.4
16/11:31am 16.3 7.4 10.6 69 3.0 W 48 67 26 36 1009.5 1009.5 0.4
16/11:30am 16.5 7.4 9.9 65 3.5 W 48 59 26 32 1009.5 1009.5 0.4
16/11:00am 17.2 8.8 9.1 59 4.2 W 43 56 23 30 1009.5 1009.5 0.4
16/10:59am 17.2 8.8 8.9 58 4.3 W 43 56 23 30 1009.5 1009.5 0.4
16/10:30am 16.2 6.4 10.1 67 3.2 WSW 52 63 28 34 1009.4 1009.4 0.4
16/10:00am 16.4 6.8 9.3 63 3.7 W 50 59 27 32 1009.1 1009.1 0.4
16/09:41am 15.5 7.5 11.1 75 2.3 W 44 59 24 32 1009.1 1009.1 0.4
16/09:35am 14.4 4.5 11.2 81 1.7 W 54 72 29 39 1009.2 1009.2 0.4
16/09:30am 14.4 4.1 11.0 80 1.8 W 56 72 30 39 1009.2 1009.2 0.4
16/09:23am 14.5 5.4 11.3 81 1.7 W 50 69 27 37 1009.1 1009.1 0.2
16/09:10am 16.3 8.0 9.5 64 3.5 W 43 61 23 33 1008.8 1008.8 0.0
16/09:00am 16.5 7.5 9.0 61 3.9 W 46 61 25 33 1008.7 1008.7 5.8
16/08:52am 16.6 8.3 9.3 62 3.8 W 43 61 23 33 1008.7 1008.7 5.8
16/08:30am 16.2 6.8 8.9 62 3.7 W 48 61 26 33 1008.7 1008.7 5.8
16/08:00am 16.0 6.9 9.7 66 3.3 W 48 61 26 33 1008.4 1008.4 5.8
16/07:30am 16.0 7.5 8.7 62 3.7 W 43 54 23 29 1008.1 1008.1 5.8
16/07:00am 15.5 6.7 9.6 68 3.1 WSW 46 57 25 31 1007.8 1007.8 5.8
16/06:30am 15.5 6.4 9.8 69 3.0 WSW 48 57 26 31 1007.5 1007.5 5.8
16/06:00am 15.6 5.8 8.8 64 3.5 W 50 59 27 32 1007.4 1007.4 5.8
16/05:30am 15.7 5.8 8.4 62 3.7 W 50 61 27 33 1007.1 1007.1 5.8
16/05:14am 15.7 5.7 8.0 60 3.9 W 50 69 27 37 1006.9 1006.9 5.8
16/05:00am 15.5 5.7 8.5 63 3.6 W 50 59 27 32 1006.7 1006.7 5.8
16/04:30am 15.9 6.7 7.9 59 4.0 W 46 57 25 31 1006.6 1006.6 5.8
16/04:00am 15.7 6.1 6.4 54 4.5 W 46 59 25 32 1006.6 1006.6 5.8
16/03:30am 15.9 5.3 8.6 62 3.7 W 54 65 29 35 1006.4 1006.4 5.8
16/03:00am 15.8 5.9 9.9 68 3.1 W 52 63 28 34 1006.4 1006.4 5.8
16/02:44am 15.9 6.3 9.6 66 3.3 W 50 69 27 37 1006.5 1006.5 5.8
16/02:30am 15.9 6.3 10.7 71 2.8 W 52 63 28 34 1006.6 1006.6 5.8
16/02:00am 16.3 7.2 9.7 65 3.5 W 48 59 26 32 1006.7 1006.7 5.8
16/01:30am 16.7 7.5 11.0 69 3.1 W 50 61 27 33 1006.7 1006.7 5.8
16/01:00am 16.5 8.5 10.6 68 3.1 W 43 59 23 32 1006.7 1006.7 5.8
16/12:30am 16.5 8.4 11.9 74 2.5 W 46 61 25 33 1006.9 1006.9 5.8
16/12:00am 16.6 8.6 12.4 76 2.3 W 46 56 25 30 1006.9 1006.9 5.8
 
Date/Time
EDT
Temp
°C
App
Temp
°C
Dew
Point
°C
Rel
Hum
%
Delta-T
°C
Wind Press
QNH
hPa
Press
MSL
hPa
Rain since
9am
mm
Dir  Spd
km/h
Gust
km/h
Spd
kts
Gust
kts
15/11:30pm 16.4 8.8 12.4 77 2.2 W 44 54 24 29 1007.0 1007.0 5.8
15/11:25pm 16.4 8.7 12.2 76 2.3 W 44 57 24 31 1006.9 1006.9 5.8
15/11:11pm 15.5 7.6 13.7 89 1.0 W 48 59 26 32 1007.1 1007.1 5.8
15/11:00pm 16.6 8.8 13.1 80 2.0 W 46 59 25 32 1007.0 1007.0 5.6
15/10:53pm 16.4 8.6 13.1 81 1.8 W 46 57 25 31 1007.0 1007.0 5.6
15/10:39pm 15.5 8.5 14.2 92 0.7 W 44 63 24 34 1007.2 1007.2 5.6
15/10:32pm 16.0 8.2 14.2 89 1.0 W 48 63 26 34 1007.2 1007.2 5.4
15/10:30pm 16.4 9.0 14.1 86 1.3 W 46 63 25 34 1007.1 1007.1 5.2
15/10:29pm 16.7 9.5 13.8 83 1.6 W 44 63 24 34 1007.0 1007.0 5.2
15/10:00pm 16.7 9.4 12.8 78 2.2 W 43 57 23 31 1007.0 1007.0 5.2
15/09:48pm 16.4 10.5 13.7 84 1.5 W 37 56 20 30 1007.0 1007.0 5.2
15/09:41pm 15.9 9.8 14.1 89 1.0 W 39 52 21 28 1007.1 1007.1 5.2
15/09:31pm 15.7 7.8 12.8 83 1.6 W 46 67 25 36 1007.1 1007.1 5.2
15/09:30pm 15.8 8.0 12.9 83 1.6 W 46 72 25 39 1007.1 1007.1 5.2
15/09:21pm 17.1 10.2 14.0 82 1.8 W 43 72 23 39 1007.0 1007.0 5.2
15/09:00pm 16.3 9.5 14.8 91 0.9 WNW 44 57 24 31 1006.9 1006.9 5.2
15/08:30pm 16.0 9.1 14.5 91 0.9 W 44 70 24 38 1006.6 1006.6 5.2
15/08:28pm 16.6 10.5 15.3 92 0.8 WNW 41 70 22 38 1006.7 1006.7 5.2
15/08:23pm 16.2 9.5 15.1 93 0.6 WNW 44 59 24 32 1006.7 1006.7 5.2
15/08:07pm 16.5 8.9 14.7 89 1.0 W 48 70 26 38 1006.4 1006.4 5.2
15/08:06pm 16.5 9.3 14.7 89 1.0 W 46 63 25 34 1006.4 1006.4 5.2
15/08:02pm 16.8 10.3 15.5 92 0.8 WNW 44 63 24 34 1006.4 1006.4 5.0
15/08:00pm 16.6 10.0 15.3 92 0.8 WNW 44 57 24 31 1006.4 1006.4 5.0
15/07:42pm 17.1 10.8 14.6 85 1.4 WNW 41 59 22 32 1006.4 1006.4 4.6
15/07:30pm 16.9 10.1 14.7 87 1.3 WNW 44 57 24 31 1006.4 1006.4 4.6
15/07:08pm 16.6 10.8 15.0 90 0.9 WNW 39 56 21 30 1006.2 1006.2 4.6
15/07:00pm 16.5 10.7 16.0 97 0.3 WNW 41 56 22 30 1006.3 1006.3 4.6
15/06:57pm 16.4 10.9 15.8 96 0.4 WNW 39 56 21 30 1006.3 1006.3 4.6
15/06:30pm 17.8 10.7 14.1 79 2.1 WNW 44 63 24 34 1006.3 1006.3 4.2
15/06:29pm 17.8 10.7 14.1 79 2.1 WNW 44 63 24 34 1006.3 1006.3 4.2
15/06:00pm 17.6 10.0 13.5 77 2.3 WNW 46 59 25 32 1006.4 1006.4 4.2
15/05:30pm 17.6 9.9 14.5 82 1.8 WNW 48 61 26 33 1006.5 1006.5 4.2
15/05:00pm 17.8 11.0 14.7 82 1.8 WNW 44 57 24 31 1006.8 1006.8 4.2
15/04:33pm 17.7 10.0 14.4 81 1.9 WNW 48 67 26 36 1006.9 1006.9 4.2
15/04:30pm 17.6 9.5 14.3 81 1.9 WNW 50 67 27 36 1006.9 1006.9 4.2
15/04:16pm 17.2 9.2 14.7 85 1.4 WNW 50 65 27 35 1007.0 1007.0 4.2
15/04:04pm 16.8 9.7 16.0 95 0.5 WNW 48 72 26 39 1007.1 1007.1 4.2
15/04:00pm 16.5 8.8 15.4 93 0.6 WNW 50 72 27 39 1007.2 1007.2 4.2
15/03:57pm 17.0 9.1 15.0 88 1.2 WNW 50 70 27 38 1007.2 1007.2 4.0
15/03:38pm 16.6 8.9 15.5 93 0.6 WNW 50 63 27 34 1007.3 1007.3 4.0
15/03:30pm 16.5 8.4 14.3 87 1.3 W 50 69 27 37 1007.3 1007.3 4.0
15/03:27pm 16.7 8.9 15.1 90 0.9 W 50 69 27 37 1007.3 1007.3 4.0
15/03:13pm 16.3 8.7 14.8 91 0.9 WNW 48 70 26 38 1007.3 1007.3 4.0
15/03:10pm 15.9 8.7 14.8 93 0.6 WNW 46 70 25 38 1007.3 1007.3 4.0
15/03:00pm 16.7 10.9 15.9 95 0.5 WNW 41 59 22 32 1007.4 1007.4 3.8
15/02:42pm 17.1 9.8 15.4 90 1.0 WNW 48 67 26 36 1007.5 1007.5 3.6
15/02:41pm 17.1 10.3 15.8 92 0.8 WNW 46 63 25 34 1007.5 1007.5 3.6
15/02:39pm 17.0 10.8 16.4 96 0.4 WNW 44 63 24 34 1007.6 1007.6 3.6
15/02:38pm 17.1 11.2 16.8 98 0.2 WNW 43 57 23 31 1007.6 1007.6 3.6
15/02:30pm 16.4 11.1 16.2 99 0.1 WNW 39 56 21 30 1007.7 1007.7 3.6
15/02:00pm 16.5 9.6 15.7 95 0.5 WNW 46 69 25 37 1007.5 1007.5 2.8
15/01:59pm 16.4 9.4 15.4 94 0.6 WNW 46 69 25 37 1007.6 1007.6 2.8
15/01:57pm 17.1 10.7 15.8 92 0.8 WNW 44 69 24 37 1007.6 1007.6 2.4
15/01:55pm 17.1 10.9 16.0 93 0.6 WNW 43 69 23 37 1007.5 1007.5 2.4
15/01:45pm 16.4 9.2 15.9 97 0.3 WNW 48 61 26 33 1007.7 1007.7 2.4
15/01:30pm 16.3 8.4 15.0 92 0.8 WNW 50 67 27 36 1007.7 1007.7 0.8
15/01:27pm 16.6 8.7 15.0 90 0.9 WNW 50 67 27 36 1007.6 1007.6 0.8
15/01:21pm 16.9 10.5 15.8 93 0.6 WNW 44 63 24 34 1007.6 1007.6 0.8
15/01:19pm 16.7 10.0 15.2 91 0.9 WNW 44 63 24 34 1007.6 1007.6 0.8
15/01:15pm 17.1 10.0 15.1 88 1.2 WNW 46 59 25 32 1007.6 1007.6 0.8
15/01:12pm 17.2 9.8 15.2 88 1.2 WNW 48 63 26 34 1007.6 1007.6 0.8
15/01:04pm 17.1 10.5 15.4 90 1.0 WNW 44 63 24 34 1007.6 1007.6 0.8
15/01:00pm 16.9 10.6 16.1 95 0.5 WNW 44 59 24 32 1007.7 1007.7 0.8
15/12:52pm 16.1 8.8 14.6 91 0.9 WNW 46 59 25 32 1007.8 1007.8 0.6
15/12:42pm 16.9 10.3 14.9 88 1.2 WNW 43 59 23 32 1007.8 1007.8 0.4
15/12:30pm 16.3 9.9 14.3 88 1.1 WNW 41 59 22 32 1007.9 1007.9 0.4
15/12:26pm 16.1 9.8 14.6 91 0.9 WNW 41 59 22 32 1007.9 1007.9 0.4
15/12:21pm 17.1 10.4 14.6 85 1.4 WNW 43 61 23 33 1007.9 1007.9 0.2
15/12:05pm 16.6 9.9 15.0 90 0.9 WNW 44 63 24 34 1008.0 1008.0 0.0
15/12:02pm 16.5 9.3 14.7 89 1.0 WNW 46 63 25 34 1008.0 1008.0 0.0

Other Formats:

Comma delimited format used in spreadsheet applications
http://www.bom.gov.au/fwo/IDT60801/IDT60801.94980.axf

JavaScript Object Notation format (JSON) in row-major order
http://www.bom.gov.au/fwo/IDT60801/IDT60801.94980.json